HEMA Airport Information

Runway Information
Runway 15 Length 9843 ft width 148 ft
Elevation 247 ft Threshold 0 ft Heading 150
Runway 33 Length 9843 ft Width 148 ft
Elevation 233 ft Threshold 0 ft Heading 330
Airport Frequencies
Type APP Name APP Frequency 121 MHZ
Type EMR Name FIRE Frequency 121.9 MHZ
Type GND Name GND Frequency 121.9 MHZ
Type TWR Name TWR Frequency 121 MHZ
Airport Navaids
Type VOR-DME Name Marsa Alam Frequency 115500 KHZ
Airport Weather Information & NOTAM
ADDS - METARS form results

(0307 UTC 18 May 2022)
Data provider http://aviationweather.gov/metar/data/
 
Forecast for: HEMA (MARSA ALAM INTL , EG)
Text: TAF HEMA 172300Z 1800/1906 32010G20KT CAVOK
Forecast period: 0000 UTC 18 May 2022 to 0600 UTC 19 May 2022
Forecast type: FROM: standard forecast or significant change
Winds: from the NW (320 degrees) at 12 MPH (10 knots; 5.1 m/s)
gusting to 23 MPH (20 knots; 10.3 m/s)
Visibility: 6 or more miles (10+ km)
Ceiling: unknown
Clouds: missing
Weather: NSW  (no significant weather)